Terminal Aerodrome Forecast
Issued by NWS Grand Forks, ND

Home | Current Version | Previous Version | Graphics & Text | Print | Product List | Glossary On
Versions: 1 2 3 4 5 6 7 8 9 10 11 12 13 14 15 16 17 18 19 20 21 22 23
000
FTUS43 KFGF 180300 AAB
TAFFAR
TAF AMD
KFAR 180329Z 1803/1824 14008KT P6SM SCT007
      TEMPO 1803/1806 BKN007
     FM180600 16008KT P6SM -TSRA BKN012CB
     FM181000 19008KT P6SM BKN015
     FM181800 29010KT P6SM BKN040
     FM182000 31011KT P6SM VCTS BKN040CB=

USA.gov is the U.S. government's official web portal to all federal, state and local government web resources and services.